Time;durP1;ratioP1;P1;durP2;ratioP2;P2;SDS_P1;SDS_P2;PMS_P1;PMS_P2;Temp;Humidity;BMP_temperature;BMP_pressure;BME280_temperature;BME280_humidity;BME280_pressure;Samples;Min_cycle;Max_cycle;Signal;HPM_P1;HPM_P2
2022/12/04 00:07:23;;;;;;;;;;;;;;;;;;;;;
2022/12/04 00:49:26;;;;;;;9.73;5.78;;;5.10;99.90;;;;;;4972274;28;20049;-80
2022/12/04 00:52:31;;;;;;;;;;;;;;;;;;;;;
2022/12/04 00:59:02;;;;;;;8.85;4.70;;;5.10;99.90;;;;;;4873888;29;21694;-80
2022/12/04 01:23:50;;;;;;;;;;;;;;;;;;;;;
2022/12/04 01:26:47;;;;;;;7.13;4.38;;;5.00;99.90;;;;;;4978883;28;20105;-78
2022/12/04 01:29:17;;;;;;;5.53;3.90;;;5.10;99.90;;;;;;4960970;28;20129;-78
2022/12/04 01:31:51;;;;;;;7.32;4.88;;;5.10;99.90;;;;;;4962961;28;20023;-78
2022/12/04 01:38:15;;;;;;;;;;;;;;;;;;;;;
2022/12/04 01:49:15;;;;;;;;;;;;;;;;;;;;;
2022/12/04 01:56:17;;;;;;;5.30;3.58;;;5.10;99.90;;;;;;4733225;30;20048;-80
2022/12/04 02:02:09;;;;;;;5.70;3.95;;;5.10;99.90;;;;;;4748743;30;20205;-79
2022/12/04 02:04:35;;;;;;;6.53;3.78;;;5.00;99.90;;;;;;4760209;29;20043;-78
2022/12/04 02:07:01;;;;;;;5.57;4.10;;;5.00;99.90;;;;;;4872488;28;20052;-79
2022/12/04 02:09:29;;;;;;;7.85;4.30;;;5.00;99.90;;;;;;4960457;28;20078;-80
2022/12/04 02:29:50;;;;;;;5.55;3.60;;;5.00;99.90;;;;;;5129580;23;20287;-79
2022/12/04 02:32:48;;;;;;;5.03;3.50;;;5.00;99.90;;;;;;4960623;28;20118;-79
2022/12/04 02:35:22;;;;;;;5.93;3.90;;;5.00;99.90;;;;;;4949215;29;20027;-79
2022/12/04 02:38:12;;;;;;;6.10;3.75;;;5.10;99.90;;;;;;4971588;28;20024;-79
2022/12/04 02:41:20;;;;;;;5.53;3.55;;;5.00;99.90;;;;;;4942937;28;20502;-79
2022/12/04 06:31:37;;;;;;;;;;;;;;;;;;;;;
2022/12/04 06:37:33;;;;;;;;;;;;;;;;;;;;;
2022/12/04 06:40:28;;;;;;;7.05;4.05;;;4.80;99.90;;;;;;4958738;29;20114;-80
2022/12/04 06:43:43;;;;;;;7.28;4.75;;;4.90;99.90;;;;;;4909335;29;20051;-80
2022/12/04 06:46:12;;;;;;;;;;;4.90;99.90;;;;;;4939287;29;20032;-79
2022/12/04 06:48:39;;;;;;;6.60;4.03;;;5.00;99.90;;;;;;4941618;29;19942;-79
2022/12/04 06:51:15;;;;;;;6.32;4.07;;;4.90;99.90;;;;;;4941651;29;20040;-79
2022/12/04 06:53:51;;;;;;;7.30;4.32;;;4.90;99.90;;;;;;4958683;29;20035;-79
2022/12/04 06:56:34;;;;;;;8.35;4.50;;;4.90;99.90;;;;;;4943661;29;20027;-79
2022/12/04 06:59:09;;;;;;;6.93;4.38;;;5.00;99.90;;;;;;4944997;29;20062;-79
2022/12/04 07:18:45;;;;;;;7.13;4.32;;;4.90;99.90;;;;;;5220197;23;20532;-80
2022/12/04 07:21:33;;;;;;;8.43;4.50;;;5.00;99.90;;;;;;4944636;28;20121;-79
2022/12/04 07:24:18;;;;;;;7.82;4.70;;;5.00;99.90;;;;;;4957948;28;20054;-79
2022/12/04 07:30:10;;;;;;;7.25;4.60;;;5.00;99.90;;;;;;4961735;29;20052;-78
2022/12/04 07:32:39;;;;;;;7.28;4.43;;;4.90;99.90;;;;;;4962730;28;20030;-81
2022/12/04 07:35:05;;;;;;;8.57;5.10;;;5.00;99.90;;;;;;4963577;28;20033;-78
2022/12/04 07:37:31;;;;;;;8.07;5.07;;;4.90;99.90;;;;;;4964698;28;20432;-78
2022/12/04 07:39:56;;;;;;;10.00;6.07;;;5.00;99.90;;;;;;4980970;28;20031;-78
2022/12/04 07:42:22;;;;;;;7.68;4.97;;;5.00;99.90;;;;;;4967783;28;20034;-78
2022/12/04 07:44:48;;;;;;;9.73;5.20;;;5.10;99.90;;;;;;4980696;28;20058;-78
2022/12/04 07:47:21;;;;;;;9.18;5.28;;;5.00;99.90;;;;;;4980698;28;20033;-79
2022/12/04 07:50:02;;;;;;;9.07;5.38;;;5.00;99.90;;;;;;4963503;28;20042;-79
2022/12/04 07:52:50;;;;;;;9.63;5.70;;;5.00;99.90;;;;;;4963120;28;20491;-78
2022/12/04 07:55:42;;;;;;;10.25;5.55;;;5.00;99.90;;;;;;4962701;28;20038;-79
2022/12/04 07:58:16;;;;;;;8.80;5.40;;;5.00;99.90;;;;;;4956946;28;20042;-79
2022/12/04 08:12:23;;;;;;;8.93;5.00;;;5.00;99.90;;;;;;5226318;23;20267;-80
2022/12/04 08:14:49;;;;;;;8.70;5.05;;;4.90;99.90;;;;;;4963020;28;20483;-80
2022/12/04 08:17:14;;;;;;;8.10;5.20;;;4.90;99.90;;;;;;4961231;28;20403;-80
2022/12/04 08:19:40;;;;;;;8.77;6.10;;;4.90;99.90;;;;;;4959374;29;20023;-80
2022/12/04 08:22:06;;;;;;;9.65;5.53;;;4.90;99.90;;;;;;4959345;29;20024;-80
2022/12/04 08:24:31;;;;;;;8.98;5.15;;;4.90;99.90;;;;;;4942693;29;20027;-80
2022/12/04 08:36:24;;;;;;;8.50;5.57;;;5.00;99.90;;;;;;4936006;29;20103;-80
2022/12/04 08:38:54;;;;;;;9.80;5.45;;;5.00;99.90;;;;;;4939176;29;20044;-79
2022/12/04 08:41:25;;;;;;;8.85;5.28;;;5.00;99.90;;;;;;4941159;29;20028;-79
2022/12/04 08:43:54;;;;;;;8.48;5.18;;;5.10;99.90;;;;;;4940951;29;20545;-79
2022/12/04 08:46:21;;;;;;;7.13;4.75;;;5.00;99.90;;;;;;4941462;29;20016;-79
2022/12/04 08:48:54;;;;;;;9.57;5.32;;;5.00;99.90;;;;;;4941286;29;20035;-79
2022/12/04 09:30:38;;;;;;;9.32;4.47;;;5.20;99.90;;;;;;4906974;29;20041;-80
2022/12/04 09:33:04;;;;;;;8.75;5.18;;;5.10;99.90;;;;;;4969520;28;20411;-79
2022/12/04 09:35:29;;;;;;;8.23;5.45;;;5.20;99.90;;;;;;4976774;28;20022;-79
2022/12/04 09:37:56;;;;;;;8.75;4.80;;;5.20;99.90;;;;;;4958484;28;20034;-78
2022/12/04 09:40:27;;;;;;;8.35;4.95;;;5.20;99.90;;;;;;4978383;28;20022;-79
2022/12/04 09:43:22;;;;;;;9.05;5.63;;;5.20;99.90;;;;;;4977013;28;20049;-79
2022/12/04 09:45:52;;;;;;;9.15;5.35;;;5.20;99.90;;;;;;4952023;28;20118;-78
2022/12/04 09:48:30;;;;;;;10.00;6.03;;;5.20;99.90;;;;;;4967464;28;20527;-80
2022/12/04 09:55:08;;;;;;;8.27;5.30;;;5.30;99.90;;;;;;5239005;23;21153;-83
2022/12/04 09:58:00;;;;;;;9.60;5.15;;;5.30;99.90;;;;;;4959934;28;20042;-81
2022/12/04 10:00:28;;;;;;;11.25;5.82;;;5.30;99.90;;;;;;4951307;28;20089;-80
2022/12/04 10:03:00;;;;;;;9.65;5.32;;;5.40;99.90;;;;;;4977979;28;20025;-79
2022/12/04 10:05:43;;;;;;;8.17;4.90;;;5.30;99.90;;;;;;4958572;28;20031;-77
2022/12/04 10:08:37;;;;;;;8.65;4.80;;;5.40;99.90;;;;;;4957409;28;20050;-78
2022/12/04 10:11:30;;;;;;;9.32;5.45;;;5.40;99.90;;;;;;4957737;28;20407;-80
2022/12/04 10:13:59;;;;;;;8.35;5.13;;;5.30;99.90;;;;;;4961077;28;20081;-79
2022/12/04 10:16:46;;;;;;;8.20;5.32;;;5.30;99.90;;;;;;4957918;28;20384;-75
2022/12/04 10:19:51;;;;;;;9.10;5.40;;;5.40;99.90;;;;;;4976661;28;20499;-74
2022/12/04 10:22:35;;;;;;;8.23;4.72;;;5.40;99.90;;;;;;4955784;28;20400;-74
2022/12/04 10:25:10;;;;;;;10.75;6.30;;;5.50;99.90;;;;;;4975414;28;20015;-74
2022/12/04 10:27:52;;;;;;;8.82;5.35;;;5.50;99.90;;;;;;4973535;28;20023;-74
2022/12/04 10:30:31;;;;;;;9.98;5.38;;;5.50;99.90;;;;;;4960444;28;20027;-76
2022/12/04 10:33:12;;;;;;;10.20;5.80;;;5.60;99.90;;;;;;4959030;28;20114;-76
2022/12/04 10:35:42;;;;;;;10.07;5.85;;;5.70;99.90;;;;;;4979418;28;20023;-76
2022/12/04 10:38:34;;;;;;;10.75;6.13;;;5.70;99.90;;;;;;4979928;28;20392;-76
2022/12/04 10:41:20;;;;;;;10.70;6.10;;;5.70;99.90;;;;;;4974866;28;20422;-74
2022/12/04 10:43:48;;;;;;;9.80;5.47;;;5.60;99.90;;;;;;4979418;28;20053;-74
2022/12/04 10:46:34;;;;;;;9.63;5.53;;;5.60;99.90;;;;;;4980603;28;20431;-75
2022/12/04 10:49:20;;;;;;;8.85;4.90;;;5.70;99.90;;;;;;4977040;28;20050;-76
2022/12/04 10:51:46;;;;;;;7.60;4.78;;;5.70;99.90;;;;;;4974954;28;20055;-75
2022/12/04 10:54:36;;;;;;;9.50;5.18;;;5.70;99.90;;;;;;4980681;28;20037;-77
2022/12/04 10:57:10;;;;;;;9.90;4.85;;;5.80;99.90;;;;;;4979587;28;20055;-78
2022/12/04 10:59:48;;;;;;;9.43;5.57;;;5.80;99.90;;;;;;4979669;28;20059;-77
2022/12/04 11:02:21;;;;;;;10.50;5.72;;;5.80;99.90;;;;;;4980287;28;20034;-77
2022/12/04 11:05:13;;;;;;;;;;;5.80;99.90;;;;;;4982061;28;20239;-77
2022/12/04 11:07:46;;;;;;;6.28;3.97;;;5.80;99.90;;;;;;4965035;28;20389;-76
2022/12/04 11:10:31;;;;;;;7.80;4.68;;;5.80;99.90;;;;;;4958342;28;20027;-74
2022/12/04 11:13:12;;;;;;;8.23;4.93;;;5.80;99.90;;;;;;4978012;28;20050;-74
2022/12/04 11:15:47;;;;;;;8.02;5.05;;;5.90;99.90;;;;;;4976727;28;20034;-74
2022/12/04 11:18:24;;;;;;;9.43;5.47;;;6.00;99.90;;;;;;4977018;28;20388;-74
2022/12/04 11:21:06;;;;;;;10.05;5.85;;;6.00;99.90;;;;;;4958778;28;20380;-75
2022/12/04 11:23:44;;;;;;;10.75;6.00;;;6.00;99.90;;;;;;4975329;28;20034;-75
2022/12/04 11:26:11;;;;;;;9.48;5.57;;;6.00;99.90;;;;;;4973899;28;20027;-79
2022/12/04 11:28:39;;;;;;;10.10;5.28;;;6.00;99.90;;;;;;4978356;28;20035;-77
2022/12/04 11:31:08;;;;;;;10.13;5.65;;;6.00;99.90;;;;;;4975998;28;20025;-77
2022/12/04 11:33:39;;;;;;;8.82;5.35;;;6.00;99.90;;;;;;4968928;28;20031;-77
2022/12/04 11:36:27;;;;;;;9.68;5.38;;;6.00;99.90;;;;;;4950641;28;20019;-77
2022/12/04 11:39:22;;;;;;;10.68;6.15;;;6.00;99.90;;;;;;4965587;28;20147;-77
2022/12/04 11:42:02;;;;;;;7.55;4.80;;;6.10;99.90;;;;;;4959670;28;20047;-79
2022/12/04 11:44:32;;;;;;;9.50;5.45;;;6.20;99.90;;;;;;4980540;28;20023;-80
2022/12/04 11:47:01;;;;;;;8.05;4.68;;;6.20;99.90;;;;;;4980952;28;20516;-76
2022/12/04 11:49:28;;;;;;;11.52;6.13;;;6.30;99.90;;;;;;4981029;28;20059;-76
2022/12/04 11:52:18;;;;;;;9.02;5.28;;;6.30;99.90;;;;;;4963278;28;20055;-77
2022/12/04 11:54:43;;;;;;;8.90;5.60;;;6.40;99.90;;;;;;4980593;28;20122;-79
2022/12/04 11:57:17;;;;;;;10.73;5.88;;;6.40;99.90;;;;;;4980526;28;20050;-80
2022/12/04 11:59:55;;;;;;;;;;;6.40;99.90;;;;;;4964006;28;20113;-79
2022/12/04 12:02:34;;;;;;;8.07;4.97;;;6.40;99.90;;;;;;4977450;28;19981;-76
2022/12/04 12:05:00;;;;;;;8.65;5.40;;;6.40;99.90;;;;;;4967535;28;20116;-73
2022/12/04 12:07:50;;;;;;;9.20;5.65;;;6.40;99.90;;;;;;4981242;28;20067;-76
2022/12/04 12:10:32;;;;;;;11.77;6.55;;;6.50;99.90;;;;;;4972658;28;20499;-74
2022/12/04 12:13:07;;;;;;;7.85;5.00;;;6.40;99.90;;;;;;4974172;28;20030;-74
2022/12/04 12:16:21;;;;;;;11.20;6.63;;;6.40;99.90;;;;;;4977774;28;20629;-74
2022/12/04 12:18:59;;;;;;;11.27;6.38;;;6.40;99.90;;;;;;4981263;28;20037;-74
2022/12/04 12:21:27;;;;;;;10.23;5.93;;;6.40;99.90;;;;;;4960500;28;20043;-74
2022/12/04 12:24:23;;;;;;;8.52;6.05;;;6.40;99.90;;;;;;4958401;28;20035;-74
2022/12/04 12:26:54;;;;;;;12.68;6.85;;;6.40;99.90;;;;;;4931242;28;20424;-75
2022/12/04 12:29:48;;;;;;;7.75;4.85;;;6.40;99.90;;;;;;4958841;28;20027;-74
2022/12/04 12:32:32;;;;;;;8.52;5.20;;;6.50;99.90;;;;;;4974219;28;20043;-74
2022/12/04 12:34:59;;;;;;;8.13;5.13;;;6.70;99.90;;;;;;4958417;28;20451;-74
2022/12/04 12:37:46;;;;;;;10.55;6.30;;;6.70;99.90;;;;;;4976418;28;20030;-74
2022/12/04 12:40:44;;;;;;;8.40;5.10;;;6.80;99.90;;;;;;4959175;28;20027;-74
2022/12/04 12:43:30;;;;;;;8.48;5.07;;;6.80;99.90;;;;;;4942332;28;20039;-75
2022/12/04 12:46:00;;;;;;;8.68;5.72;;;6.80;99.90;;;;;;4958729;28;20028;-74
2022/12/04 12:48:52;;;;;;;9.10;5.68;;;6.70;99.90;;;;;;4975378;28;20066;-74
2022/12/04 12:51:36;;;;;;;8.88;5.35;;;6.70;99.90;;;;;;4976782;28;20046;-74
2022/12/04 12:54:11;;;;;;;;;;;6.60;99.90;;;;;;4973566;28;20023;-74
2022/12/04 12:56:43;;;;;;;7.18;4.50;;;6.50;99.90;;;;;;4975519;28;20363;-74
2022/12/04 12:59:19;;;;;;;7.47;4.70;;;6.50;99.90;;;;;;4970992;28;20039;-79
2022/12/04 13:02:01;;;;;;;9.18;5.25;;;6.40;99.90;;;;;;4976492;28;20023;-78
2022/12/04 13:04:45;;;;;;;8.35;4.68;;;6.50;99.90;;;;;;4976512;28;20022;-76
2022/12/04 13:07:17;;;;;;;6.75;4.40;;;6.50;99.90;;;;;;4976766;28;20105;-74
2022/12/04 13:10:11;;;;;;;8.95;4.90;;;6.50;99.90;;;;;;4971894;28;20031;-74
2022/12/04 13:13:09;;;;;;;7.35;4.43;;;6.50;99.90;;;;;;4972719;28;20443;-73
2022/12/04 13:15:42;;;;;;;7.45;4.82;;;6.50;99.90;;;;;;4958665;28;20616;-74
2022/12/04 13:18:18;;;;;;;8.10;4.55;;;6.40;99.90;;;;;;4956277;28;20508;-73
2022/12/04 13:20:53;;;;;;;6.53;4.03;;;6.40;99.90;;;;;;4955570;28;20388;-73
2022/12/04 13:23:46;;;;;;;6.50;4.22;;;6.30;99.90;;;;;;4973095;28;20027;-75
2022/12/04 13:26:49;;;;;;;6.32;3.78;;;6.30;99.90;;;;;;4956107;28;20027;-73
2022/12/04 13:29:21;;;;;;;6.18;4.38;;;6.20;99.90;;;;;;4974073;28;20030;-73
2022/12/04 13:32:08;;;;;;;5.68;3.53;;;6.20;99.90;;;;;;4975524;28;20046;-72
2022/12/04 13:34:39;;;;;;;5.95;3.38;;;6.10;99.90;;;;;;4954498;28;20035;-73
2022/12/04 13:37:26;;;;;;;7.07;4.10;;;6.20;99.90;;;;;;4975985;28;20034;-73
2022/12/04 13:40:29;;;;;;;7.13;4.60;;;6.10;99.90;;;;;;4973419;28;20023;-77
2022/12/04 13:43:21;;;;;;;4.80;3.28;;;6.10;99.90;;;;;;4957561;28;20072;-76
2022/12/04 13:45:49;;;;;;;4.28;3.13;;;6.10;99.90;;;;;;4973493;28;20023;-75
2022/12/04 13:48:27;;;;;;;5.05;3.28;;;6.10;99.90;;;;;;4972497;28;20105;-75
2022/12/04 13:51:01;;;;;;;7.25;3.78;;;6.10;99.90;;;;;;4974345;28;20107;-75
2022/12/04 13:53:36;;;;;;;4.57;3.05;;;6.10;99.90;;;;;;4973473;28;20147;-75
2022/12/04 13:56:06;;;;;;;6.32;3.70;;;6.10;99.90;;;;;;4972226;28;20093;-73
2022/12/04 13:58:36;;;;;;;6.68;3.90;;;6.10;99.90;;;;;;4973988;28;20022;-74
2022/12/04 14:01:21;;;;;;;4.90;3.08;;;6.10;99.90;;;;;;4958340;28;20026;-75
2022/12/04 14:03:50;;;;;;;4.75;3.03;;;6.10;99.90;;;;;;4957246;28;20018;-74
2022/12/04 14:06:33;;;;;;;5.45;3.55;;;6.00;99.90;;;;;;4956958;28;20045;-73
2022/12/04 14:09:08;;;;;;;5.95;3.40;;;6.00;99.90;;;;;;4954517;28;20114;-72
2022/12/04 14:11:44;;;;;;;6.20;3.55;;;6.10;99.90;;;;;;4973143;28;20034;-72
2022/12/04 14:14:51;;;;;;;5.15;3.38;;;6.10;99.90;;;;;;4973656;28;21876;-73
2022/12/04 14:17:38;;;;;;;6.72;3.97;;;6.10;99.90;;;;;;4919923;28;20046;-72
2022/12/04 14:20:09;;;;;;;5.63;3.10;;;6.10;99.90;;;;;;4973209;28;20023;-72
2022/12/04 14:22:34;;;;;;;5.00;3.25;;;6.10;99.90;;;;;;4955425;28;20114;-72
2022/12/04 14:25:12;;;;;;;6.80;3.75;;;6.10;99.90;;;;;;4970408;28;20050;-72
2022/12/04 14:27:41;;;;;;;5.07;3.25;;;6.10;99.90;;;;;;4973558;28;20117;-72
2022/12/04 14:30:26;;;;;;;5.82;3.22;;;6.10;99.90;;;;;;4974963;28;20395;-72
2022/12/04 14:32:55;;;;;;;7.35;4.43;;;6.00;99.90;;;;;;4957878;28;20042;-72
2022/12/04 14:35:25;;;;;;;6.43;3.80;;;6.00;99.90;;;;;;4957165;28;20150;-73
2022/12/04 14:37:55;;;;;;;4.72;3.28;;;6.00;99.90;;;;;;4959071;28;20161;-73
2022/12/04 14:40:27;;;;;;;5.72;3.10;;;5.90;99.90;;;;;;4976885;28;20018;-72
2022/12/04 14:42:53;;;;;;;6.00;3.53;;;6.00;99.90;;;;;;4959279;28;20026;-73
2022/12/04 14:45:44;;;;;;;6.22;3.58;;;6.00;99.90;;;;;;4976579;28;20025;-72
2022/12/04 14:48:45;;;;;;;5.95;3.83;;;6.00;99.90;;;;;;4976334;28;20030;-73
2022/12/04 14:51:36;;;;;;;5.75;3.50;;;6.10;99.90;;;;;;4945064;28;20114;-72
2022/12/04 14:54:17;;;;;;;7.15;3.90;;;6.10;99.90;;;;;;4972764;28;20094;-72
2022/12/04 14:56:54;;;;;;;6.20;3.67;;;6.10;99.90;;;;;;4974172;28;20054;-72
2022/12/04 14:59:47;;;;;;;5.57;3.20;;;6.00;99.90;;;;;;4955537;28;20132;-71
2022/12/04 15:02:26;;;;;;;5.75;3.10;;;6.00;99.90;;;;;;4957161;28;20463;-72
2022/12/04 15:04:52;;;;;;;6.57;4.10;;;6.00;99.90;;;;;;4957552;28;20467;-72
2022/12/04 15:07:28;;;;;;;6.60;3.55;;;6.00;99.90;;;;;;4957098;28;20051;-72
2022/12/04 15:12:51;;;;;;;7.18;3.85;;;6.00;99.90;;;;;;4976444;28;20097;-72
2022/12/04 15:15:24;;;;;;;7.00;3.95;;;6.00;99.90;;;;;;4964235;28;20062;-72
2022/12/04 15:18:15;;;;;;;5.28;3.53;;;5.90;99.90;;;;;;4981582;28;20115;-72
2022/12/04 15:20:43;;;;;;;5.97;3.50;;;5.90;99.90;;;;;;4980610;28;20019;-75
2022/12/04 15:23:17;;;;;;;5.53;3.78;;;5.90;99.90;;;;;;4985961;28;20019;-72
2022/12/04 15:25:52;;;;;;;5.53;3.88;;;5.90;99.90;;;;;;4977824;28;20034;-71
2022/12/04 15:28:20;;;;;;;7.93;4.28;;;5.90;99.90;;;;;;4965064;28;20037;-72
2022/12/04 15:30:48;;;;;;;7.93;4.70;;;6.00;99.90;;;;;;4962199;28;20399;-72
2022/12/04 15:33:27;;;;;;;7.72;4.50;;;6.00;99.90;;;;;;4977829;28;20082;-71
2022/12/04 15:36:11;;;;;;;7.40;4.20;;;6.00;99.90;;;;;;4960592;28;20035;-72
2022/12/04 15:38:38;;;;;;;8.07;4.32;;;6.00;99.90;;;;;;4975662;28;20026;-72
2022/12/04 15:41:04;;;;;;;7.05;4.05;;;6.00;99.90;;;;;;4958476;28;20123;-72
2022/12/04 15:43:41;;;;;;;6.63;3.97;;;6.00;99.90;;;;;;4959074;28;20054;-71
2022/12/04 15:46:21;;;;;;;6.50;3.72;;;6.00;99.90;;;;;;4955990;28;20033;-74
2022/12/04 15:48:47;;;;;;;7.75;4.32;;;6.00;99.90;;;;;;4973994;28;20090;-76
2022/12/04 15:51:15;;;;;;;7.63;4.60;;;6.00;99.90;;;;;;4975639;28;20501;-71
2022/12/04 15:53:45;;;;;;;9.05;5.00;;;6.00;99.90;;;;;;4976510;28;20518;-71
2022/12/04 15:56:20;;;;;;;9.23;5.05;;;5.90;99.90;;;;;;4976730;28;20055;-71
2022/12/04 15:58:55;;;;;;;9.15;5.10;;;5.90;99.90;;;;;;4957857;28;20049;-72
2022/12/04 16:01:21;;;;;;;8.07;4.05;;;5.90;99.90;;;;;;4976770;28;20046;-73
2022/12/04 16:03:49;;;;;;;6.47;4.10;;;6.00;99.90;;;;;;4973615;28;20050;-73
2022/12/04 16:06:30;;;;;;;11.23;6.07;;;6.00;99.90;;;;;;4971996;28;20070;-73
2022/12/04 16:09:11;;;;;;;8.65;4.50;;;6.00;99.90;;;;;;4973258;28;20031;-75
2022/12/04 16:11:38;;;;;;;9.23;5.22;;;5.90;99.90;;;;;;4956480;28;20038;-74
2022/12/04 16:14:19;;;;;;;6.63;4.13;;;6.00;99.90;;;;;;4975794;28;20039;-73
2022/12/04 16:16:47;;;;;;;10.00;5.80;;;6.00;99.90;;;;;;4956256;28;20034;-74
2022/12/04 16:19:24;;;;;;;9.25;4.82;;;6.00;99.90;;;;;;4975861;28;20023;-73
2022/12/04 16:21:51;;;;;;;9.75;4.75;;;5.90;99.90;;;;;;4975408;28;20027;-76
2022/12/04 16:24:17;;;;;;;9.75;5.20;;;5.90;99.90;;;;;;4959434;28;20035;-88
2022/12/04 16:27:29;;;;;;;8.70;4.40;;;5.90;99.90;;;;;;4952875;28;20030;-85
2022/12/04 16:29:55;;;;;;;8.48;4.60;;;5.80;99.90;;;;;;4973687;28;20043;-85
2022/12/04 16:32:31;;;;;;;6.43;3.95;;;5.80;99.90;;;;;;4974977;28;20019;-80
2022/12/04 16:34:57;;;;;;;8.93;4.28;;;5.80;99.90;;;;;;4957081;28;20034;-79
2022/12/04 16:37:23;;;;;;;7.43;4.38;;;5.80;99.90;;;;;;4972610;28;20031;-80
2022/12/04 16:39:49;;;;;;;9.07;4.25;;;5.80;99.90;;;;;;4971470;28;20022;-80
2022/12/04 16:42:23;;;;;;;7.93;4.43;;;5.80;99.90;;;;;;4957572;28;20023;-82
2022/12/04 16:44:49;;;;;;;8.05;4.15;;;5.80;99.90;;;;;;4975811;28;20154;-80
2022/12/04 16:47:37;;;;;;;;;;;;;;;;;;;;;
2022/12/04 16:56:23;;;;;;;7.60;4.38;;;5.80;99.90;;;;;;4889653;29;20767;-83
2022/12/04 17:03:15;;;;;;;;;;;;;;;;;;;;;
2022/12/04 17:09:36;;;;;;;8.82;5.03;;;5.70;99.90;;;;;;4896564;29;20071;-83
2022/12/04 17:12:17;;;;;;;8.47;4.20;;;5.70;99.90;;;;;;4914974;28;20043;-82
2022/12/04 17:14:43;;;;;;;6.28;3.72;;;5.70;99.90;;;;;;4957152;28;20294;-82
2022/12/04 17:17:17;;;;;;;6.80;4.05;;;5.80;99.90;;;;;;4957798;28;20022;-82
2022/12/04 17:19:45;;;;;;;8.43;4.57;;;5.80;99.90;;;;;;4961576;28;20498;-82
2022/12/04 17:22:22;;;;;;;7.57;4.57;;;5.80;99.90;;;;;;4961181;28;20030;-82
2022/12/04 17:24:52;;;;;;;8.05;4.57;;;5.80;99.90;;;;;;4944085;29;20027;-83
2022/12/04 17:28:03;;;;;;;9.57;4.55;;;5.80;99.90;;;;;;4961167;28;20034;-83
2022/12/04 17:30:35;;;;;;;6.95;4.07;;;5.80;99.90;;;;;;4880832;29;20041;-84
2022/12/04 17:33:01;;;;;;;8.90;4.35;;;5.80;99.90;;;;;;4959845;28;20050;-80
2022/12/04 17:35:43;;;;;;;9.73;4.70;;;5.80;99.90;;;;;;4960229;28;20039;-83
2022/12/04 17:38:47;;;;;;;7.63;4.28;;;5.80;99.90;;;;;;4948294;28;20046;-83
2022/12/04 17:41:33;;;;;;;;;;;5.80;99.90;;;;;;4960537;28;20027;-83
2022/12/04 17:44:00;;;;;;;5.72;3.53;;;5.80;99.90;;;;;;4947342;28;20338;-83
2022/12/04 17:46:31;;;;;;;6.65;3.97;;;5.80;99.90;;;;;;4961723;28;20062;-84
2022/12/04 17:48:59;;;;;;;6.15;3.80;;;5.80;99.90;;;;;;4954686;28;20408;-83
2022/12/04 17:51:28;;;;;;;7.47;3.92;;;5.80;99.90;;;;;;4952036;29;20023;-81
2022/12/04 17:57:00;;;;;;;;;;;;;;;;;;;;;
2022/12/04 17:59:51;;;;;;;6.63;3.78;;;5.80;99.90;;;;;;4972573;28;20122;-81
2022/12/04 18:02:19;;;;;;;8.63;4.53;;;5.80;99.90;;;;;;4959404;28;20065;-81
2022/12/04 18:04:45;;;;;;;7.80;4.18;;;5.80;99.90;;;;;;4974258;28;20023;-82
2022/12/04 18:07:11;;;;;;;6.22;4.10;;;5.80;99.90;;;;;;4956383;28;20110;-80
2022/12/04 18:09:39;;;;;;;8.77;4.38;;;5.80;99.90;;;;;;4972188;28;20051;-82
2022/12/04 18:12:06;;;;;;;7.65;4.32;;;5.80;99.90;;;;;;4954998;29;20060;-82
2022/12/04 18:14:41;;;;;;;8.15;4.35;;;5.90;99.90;;;;;;4960630;29;20411;-83
2022/12/04 18:17:10;;;;;;;8.57;4.50;;;5.90;99.90;;;;;;4942931;29;20085;-84
2022/12/04 18:19:36;;;;;;;8.82;4.78;;;5.90;99.90;;;;;;4940361;29;20035;-80
2022/12/04 18:22:49;;;;;;;8.43;4.75;;;5.90;99.90;;;;;;4939203;29;20047;-82
2022/12/04 18:25:24;;;;;;;7.65;4.57;;;5.90;99.90;;;;;;4928967;29;20032;-82
2022/12/04 18:27:50;;;;;;;9.52;4.93;;;5.90;99.90;;;;;;4952865;29;20039;-80
2022/12/04 18:30:16;;;;;;;7.20;4.13;;;5.90;99.90;;;;;;4954657;29;20118;-80
2022/12/04 18:32:42;;;;;;;9.05;5.15;;;5.90;99.90;;;;;;4952493;28;20031;-79
2022/12/04 18:35:08;;;;;;;9.23;5.45;;;5.90;99.90;;;;;;4936733;29;20558;-81
2022/12/04 18:37:34;;;;;;;9.63;5.65;;;5.90;99.90;;;;;;4935192;29;20155;-80
2022/12/04 18:40:00;;;;;;;10.23;6.03;;;5.90;99.90;;;;;;4937026;29;20024;-77
2022/12/04 18:42:25;;;;;;;10.65;5.70;;;5.90;99.90;;;;;;4937212;29;20032;-78
2022/12/04 18:44:51;;;;;;;9.48;5.57;;;5.90;99.90;;;;;;4937315;29;20031;-80
2022/12/04 18:47:17;;;;;;;10.82;6.22;;;5.90;99.90;;;;;;4949714;29;20042;-80
2022/12/04 18:49:45;;;;;;;12.20;6.47;;;5.90;99.90;;;;;;4936786;29;20035;-81
2022/12/04 18:52:11;;;;;;;10.45;6.15;;;5.90;99.90;;;;;;4959432;28;20078;-80
2022/12/04 18:54:37;;;;;;;9.40;5.13;;;5.90;99.90;;;;;;4960550;29;20038;-81
2022/12/04 18:57:02;;;;;;;10.95;5.85;;;5.90;99.90;;;;;;4943590;29;20111;-80
2022/12/04 18:59:28;;;;;;;10.65;5.68;;;5.90;99.90;;;;;;4951953;29;20032;-79
2022/12/04 19:01:57;;;;;;;8.88;5.40;;;5.90;99.90;;;;;;4951061;29;20031;-81
2022/12/04 19:04:25;;;;;;;10.73;5.85;;;5.90;99.90;;;;;;4942689;29;20115;-82
2022/12/04 19:06:54;;;;;;;8.82;5.05;;;5.90;99.90;;;;;;4928153;29;20031;-81
2022/12/04 19:09:23;;;;;;;9.82;5.78;;;5.90;99.90;;;;;;4943658;29;20035;-80
2022/12/04 19:11:51;;;;;;;9.48;5.40;;;6.00;99.90;;;;;;4937450;29;20027;-82
2022/12/04 19:14:18;;;;;;;9.98;5.60;;;6.00;99.90;;;;;;4958981;29;20412;-79
2022/12/04 19:16:46;;;;;;;11.48;5.97;;;6.00;99.90;;;;;;4938573;29;20027;-82
2022/12/04 19:19:13;;;;;;;11.35;6.50;;;6.00;99.90;;;;;;4942678;29;20393;-80
2022/12/04 19:21:39;;;;;;;9.18;5.72;;;6.00;99.90;;;;;;4954242;29;20031;-80
2022/12/04 19:24:09;;;;;;;9.57;5.57;;;6.00;99.90;;;;;;4944239;29;20030;-80
2022/12/04 19:26:34;;;;;;;7.45;4.13;;;6.00;99.90;;;;;;4944256;29;20028;-79
2022/12/04 19:29:05;;;;;;;10.80;6.00;;;6.00;99.90;;;;;;4944274;29;20033;-80
2022/12/04 19:31:33;;;;;;;9.05;5.43;;;6.00;99.90;;;;;;4960928;29;20042;-81
2022/12/04 19:33:59;;;;;;;9.07;5.07;;;6.00;99.90;;;;;;4944229;29;20182;-81
2022/12/04 19:36:58;;;;;;;9.73;4.93;;;6.00;99.90;;;;;;4955465;29;20159;-83
2022/12/04 19:40:06;;;;;;;;;;;;;;;;;;;;;
2022/12/04 19:47:09;;;;;;;7.13;4.10;;;6.00;99.90;;;;;;4840619;29;20030;-84
2022/12/04 19:49:35;;;;;;;7.00;3.88;;;6.00;99.90;;;;;;4835750;29;20056;-81
2022/12/04 19:55:56;;;;;;;5.72;3.67;;;6.00;99.90;;;;;;4820257;29;20061;-81
2022/12/04 19:58:47;;;;;;;7.95;4.95;;;6.00;99.90;;;;;;4901873;29;20036;-82
2022/12/04 20:01:22;;;;;;;8.18;4.38;;;6.00;99.90;;;;;;4910180;29;20036;-80
2022/12/04 20:03:48;;;;;;;9.40;5.05;;;6.00;99.90;;;;;;4931259;29;20031;-80
2022/12/04 20:06:42;;;;;;;8.55;4.70;;;6.00;99.90;;;;;;4943772;29;20031;-80
2022/12/04 20:13:30;;;;;;;;;;;;;;;;;;;;;
2022/12/04 20:16:27;;;;;;;;;;;;;;;;;;;;;
2022/12/04 20:19:04;;;;;;;8.85;5.18;;;5.90;99.90;;;;;;4920610;29;20035;-81
2022/12/04 20:21:32;;;;;;;9.35;4.88;;;5.90;99.90;;;;;;4949669;29;20070;-81
2022/12/04 20:24:17;;;;;;;9.48;4.93;;;5.90;99.90;;;;;;4942988;29;20019;-81
2022/12/04 20:26:45;;;;;;;10.35;5.32;;;5.90;99.90;;;;;;4956770;29;20027;-81
2022/12/04 20:29:17;;;;;;;9.52;5.05;;;5.90;99.90;;;;;;4957736;29;20054;-80
2022/12/04 20:31:46;;;;;;;9.77;5.43;;;5.90;99.90;;;;;;4942464;29;20555;-81
2022/12/04 20:34:15;;;;;;;12.40;6.43;;;5.90;99.90;;;;;;4960259;29;20042;-80
2022/12/04 20:36:44;;;;;;;12.30;5.88;;;5.90;99.90;;;;;;4941486;29;20388;-79
2022/12/04 20:39:18;;;;;;;11.20;5.38;;;6.00;99.90;;;;;;4959491;29;20036;-79
2022/12/04 20:41:44;;;;;;;10.77;5.88;;;5.90;99.90;;;;;;4952652;28;20110;-78
2022/12/04 20:44:13;;;;;;;11.45;6.30;;;6.00;99.90;;;;;;4960229;28;20057;-80
2022/12/04 20:46:43;;;;;;;11.93;6.50;;;6.00;99.90;;;;;;4958826;29;20023;-79
2022/12/04 20:49:18;;;;;;;13.52;6.60;;;6.00;99.90;;;;;;4942782;29;20042;-79
2022/12/04 20:51:46;;;;;;;12.35;6.82;;;6.00;99.90;;;;;;4955980;29;20071;-79
2022/12/04 20:54:16;;;;;;;12.27;6.03;;;6.00;99.90;;;;;;4935739;29;20070;-79
2022/12/04 20:56:47;;;;;;;12.43;6.25;;;6.00;99.90;;;;;;4959207;29;20106;-78
2022/12/04 20:59:17;;;;;;;13.52;6.82;;;6.00;99.90;;;;;;4931337;29;20114;-78
2022/12/04 21:01:42;;;;;;;11.55;5.80;;;6.00;99.90;;;;;;4958289;29;20023;-78
2022/12/04 21:04:09;;;;;;;11.57;6.10;;;6.00;99.90;;;;;;4942233;29;20027;-79
2022/12/04 21:17:30;;;;;;;11.63;6.55;;;5.90;99.90;;;;;;4887190;29;20052;-79
2022/12/04 21:20:42;;;;;;;13.70;6.65;;;5.90;99.90;;;;;;4958475;29;20027;-81
2022/12/04 21:23:07;;;;;;;10.45;5.20;;;5.90;99.90;;;;;;4888843;29;20044;-78
2022/12/04 21:26:29;;;;;;;;;;;;;;;;;;;;;
2022/12/04 21:29:58;;;;;;;;;;;;;;;;;;;;;
2022/12/04 21:32:29;;;;;;;9.20;5.20;;;5.90;99.90;;;;;;4852903;29;20041;-79
2022/12/04 21:35:03;;;;;;;10.32;5.90;;;5.90;99.90;;;;;;4867602;29;20048;-83
2022/12/04 21:38:31;;;;;;;;;;;;;;;;;;;;;
2022/12/04 21:59:12;;;;;;;11.40;5.97;;;6.00;99.90;;;;;;4744124;30;20056;-81
2022/12/04 22:04:37;;;;;;;11.15;6.28;;;6.10;99.90;;;;;;4746471;29;20155;-81
2022/12/04 22:07:30;;;;;;;14.77;7.25;;;6.00;99.90;;;;;;4808864;29;20499;-81
2022/12/04 22:09:55;;;;;;;14.00;7.45;;;6.00;99.90;;;;;;4788423;29;20121;-77
2022/12/04 22:12:21;;;;;;;14.75;7.20;;;6.10;99.90;;;;;;4848999;29;20064;-78
2022/12/04 22:15:02;;;;;;;;;;;;;;;;;;;;;